Time;durP1;ratioP1;P1;durP2;ratioP2;P2;SDS_P1;SDS_P2;PMS_P1;PMS_P2;Temp;Humidity;BMP_temperature;BMP_pressure;BME280_temperature;BME280_humidity;BME280_pressure;Samples;Min_cycle;Max_cycle;Signal;HPM_P1;HPM_P2
2023/06/28 00:02:20;;;;;;;18.70;8.20;;;;;;;16.63;100.00;100267.27;107068;1283;58696;-80
2023/06/28 00:04:45;;;;;;;17.60;8.30;;;;;;;16.68;100.00;100270.00;106507;1283;58249;-81
2023/06/28 00:07:11;;;;;;;16.10;8.60;;;;;;;16.72;100.00;100266.73;107049;1283;58277;-80
2023/06/28 00:09:36;;;;;;;15.30;8.70;;;;;;;16.75;100.00;100262.38;107033;1283;58301;-81
2023/06/28 00:12:03;;;;;;;15.40;7.70;;;;;;;16.75;100.00;100263.48;106580;1283;58660;-81
2023/06/28 00:14:29;;;;;;;14.20;8.20;;;;;;;16.75;100.00;100263.41;107031;1283;74676;-81
2023/06/28 00:16:54;;;;;;;15.00;8.30;;;;;;;16.75;100.00;100259.82;107104;1283;58217;-80
2023/06/28 00:19:26;;;;;;;15.30;8.50;;;;;;;16.74;100.00;100252.77;107018;1283;58265;-81
2023/06/28 00:21:53;;;;;;;14.50;7.10;;;;;;;16.73;100.00;100248.97;107032;1283;61715;-80
2023/06/28 00:24:18;;;;;;;13.20;8.00;;;;;;;16.75;100.00;100243.65;107017;1283;60390;-80
2023/06/28 00:26:44;;;;;;;14.80;7.30;;;;;;;16.75;100.00;100245.32;107075;1283;58326;-80
2023/06/28 00:29:09;;;;;;;12.70;6.80;;;;;;;16.75;100.00;100248.11;107086;1283;58612;-80
2023/06/28 00:31:35;;;;;;;16.10;7.70;;;;;;;16.73;100.00;100250.70;106662;1283;58864;-81
2023/06/28 00:34:00;;;;;;;16.60;8.00;;;;;;;16.67;100.00;100252.48;107117;1283;58219;-81
2023/06/28 00:36:26;;;;;;;17.70;7.90;;;;;;;16.62;100.00;100254.30;106728;1283;58365;-84
2023/06/28 00:38:51;;;;;;;15.00;7.40;;;;;;;16.52;100.00;100251.70;107061;1283;58641;-80
2023/06/28 00:41:17;;;;;;;13.50;6.70;;;;;;;16.54;100.00;100247.55;107036;1283;59154;-80
2023/06/28 00:43:42;;;;;;;19.60;7.60;;;;;;;16.57;100.00;100248.42;107005;1283;58144;-81
2023/06/28 00:46:07;;;;;;;14.30;7.20;;;;;;;16.55;100.00;100245.11;107106;1283;58211;-81
2023/06/28 00:48:34;;;;;;;16.70;7.60;;;;;;;16.54;100.00;100241.60;106545;1283;58754;-80
2023/06/28 00:51:00;;;;;;;13.30;7.00;;;;;;;16.54;100.00;100242.34;107027;1283;58237;-80
2023/06/28 00:53:26;;;;;;;12.80;7.20;;;;;;;16.52;100.00;100243.44;106522;1288;58661;-81
2023/06/28 00:55:53;;;;;;;17.60;8.10;;;;;;;16.48;100.00;100240.15;107084;1283;58216;-80
2023/06/28 00:58:19;;;;;;;19.60;7.80;;;;;;;16.51;100.00;100235.62;107053;1283;58275;-81
2023/06/28 01:00:45;;;;;;;19.70;7.40;;;;;;;16.50;100.00;100231.67;107057;1283;58275;-80
2023/06/28 01:03:11;;;;;;;12.90;6.90;;;;;;;16.54;100.00;100231.46;106572;1283;58344;-80
2023/06/28 01:05:37;;;;;;;14.40;6.60;;;;;;;16.57;100.00;100227.92;107104;1283;58205;-79
2023/06/28 01:08:04;;;;;;;12.10;6.60;;;;;;;16.58;100.00;100231.98;106545;1283;59111;-80
2023/06/28 01:10:30;;;;;;;13.30;6.50;;;;;;;16.59;100.00;100229.45;107106;1283;58169;-80
2023/06/28 01:12:56;;;;;;;14.20;6.80;;;;;;;16.58;100.00;100236.55;106567;1283;58297;-80
2023/06/28 01:15:22;;;;;;;12.20;7.00;;;;;;;16.59;100.00;100237.79;106531;1283;58289;-80
2023/06/28 01:17:50;;;;;;;16.60;7.50;;;;;;;16.60;100.00;100237.98;107097;1283;58583;-80
2023/06/28 01:20:16;;;;;;;12.70;6.80;;;;;;;16.64;100.00;100236.46;106642;1283;74227;-79
2023/06/28 01:22:50;;;;;;;14.00;7.40;;;;;;;16.69;100.00;100231.98;107047;1283;58250;-80
2023/06/28 01:25:17;;;;;;;15.80;7.50;;;;;;;16.72;100.00;100232.70;107019;1283;72818;-81
2023/06/28 01:27:44;;;;;;;11.70;6.30;;;;;;;16.76;100.00;100233.83;107024;1283;58167;-80
2023/06/28 01:30:12;;;;;;;12.10;6.90;;;;;;;16.83;100.00;100232.71;107081;1283;60295;-80
2023/06/28 01:32:38;;;;;;;16.10;6.20;;;;;;;16.86;100.00;100230.79;107059;1283;73865;-80
2023/06/28 01:35:04;;;;;;;13.40;7.10;;;;;;;16.87;100.00;100236.20;107027;1283;58361;-80
2023/06/28 01:37:30;;;;;;;13.40;7.20;;;;;;;16.88;100.00;100238.73;107019;1283;58251;-81
2023/06/28 01:39:55;;;;;;;13.70;7.30;;;;;;;16.92;100.00;100235.63;107010;1283;58784;-80
2023/06/28 01:42:21;;;;;;;20.20;7.10;;;;;;;16.96;100.00;100234.65;107108;1283;58233;-80
2023/06/28 01:44:47;;;;;;;12.00;6.30;;;;;;;16.99;100.00;100229.89;106815;1283;59129;-81
2023/06/28 01:47:12;;;;;;;13.30;7.30;;;;;;;16.98;100.00;100223.71;107033;1283;72606;-80
2023/06/28 01:49:38;;;;;;;14.90;6.80;;;;;;;16.97;100.00;100220.64;107077;1283;59088;-80
2023/06/28 01:52:04;;;;;;;15.50;6.30;;;;;;;16.98;100.00;100229.48;107056;1283;59497;-80
2023/06/28 01:54:29;;;;;;;14.70;6.70;;;;;;;17.01;100.00;100225.33;107018;1282;59104;-80
2023/06/28 01:56:55;;;;;;;16.10;7.00;;;;;;;17.04;100.00;100224.02;107080;1283;59142;-81
2023/06/28 01:59:20;;;;;;;16.20;6.70;;;;;;;17.05;100.00;100226.37;107059;1283;59039;-80
2023/06/28 02:01:46;;;;;;;17.40;7.10;;;;;;;17.09;100.00;100225.63;107076;1283;59562;-80
2023/06/28 02:04:11;;;;;;;11.80;6.60;;;;;;;17.11;100.00;100227.52;107135;1283;59087;-80
2023/06/28 02:06:40;;;;;;;14.30;6.70;;;;;;;17.10;100.00;100230.06;107046;1283;59111;-80
2023/06/28 02:09:06;;;;;;;12.60;6.80;;;;;;;17.10;100.00;100227.02;107034;1283;73231;-80
2023/06/28 02:11:31;;;;;;;18.40;7.10;;;;;;;17.10;100.00;100233.33;107042;1283;59364;-81
2023/06/28 02:13:57;;;;;;;16.50;6.80;;;;;;;17.09;100.00;100235.09;107091;1283;59335;-80
2023/06/28 02:16:22;;;;;;;19.50;6.80;;;;;;;17.08;100.00;100238.35;107073;1283;59038;-80
2023/06/28 02:18:49;;;;;;;14.90;6.70;;;;;;;17.08;100.00;100235.61;107086;1283;59038;-80
2023/06/28 02:21:16;;;;;;;18.40;7.70;;;;;;;17.09;100.00;100230.14;106327;1283;60784;-81
2023/06/28 02:23:41;;;;;;;16.70;7.30;;;;;;;17.11;100.00;100229.75;107040;1283;60057;-80
2023/06/28 02:26:07;;;;;;;15.20;7.80;;;;;;;17.14;100.00;100228.09;107068;1283;59075;-80
2023/06/28 02:28:33;;;;;;;16.90;7.80;;;;;;;17.15;100.00;100226.98;107103;1283;59072;-80
2023/06/28 02:30:58;;;;;;;17.20;7.80;;;;;;;17.19;100.00;100221.16;107014;1283;59055;-80
2023/06/28 02:33:24;;;;;;;14.80;7.70;;;;;;;17.21;100.00;100216.84;107078;1283;59049;-80
2023/06/28 02:35:49;;;;;;;22.40;8.30;;;;;;;17.25;100.00;100225.83;107036;1283;75485;-80
2023/06/28 02:38:14;;;;;;;17.50;8.40;;;;;;;17.30;100.00;100223.00;107110;1283;59109;-80
2023/06/28 02:40:40;;;;;;;17.10;7.80;;;;;;;17.31;100.00;100225.73;107011;1283;59100;-81
2023/06/28 02:43:05;;;;;;;21.00;8.60;;;;;;;17.37;100.00;100227.80;106826;1283;59076;-80
2023/06/28 02:45:31;;;;;;;16.20;8.30;;;;;;;17.46;100.00;100228.61;106577;1283;59192;-80
2023/06/28 02:47:56;;;;;;;25.40;8.20;;;;;;;17.58;100.00;100227.89;107081;1283;59043;-81
2023/06/28 02:50:24;;;;;;;22.30;8.60;;;;;;;17.68;100.00;100228.14;107050;1283;59073;-81
2023/06/28 02:52:49;;;;;;;26.10;11.10;;;;;;;17.75;100.00;100229.09;107072;1283;59008;-81
2023/06/28 02:55:15;;;;;;;28.10;12.50;;;;;;;17.80;100.00;100229.75;107066;1283;59140;-81
2023/06/28 02:57:40;;;;;;;73.40;25.60;;;;;;;17.86;100.00;100231.52;107088;1283;59181;-81
2023/06/28 03:00:07;;;;;;;59.90;23.40;;;;;;;17.89;100.00;100228.49;106625;1283;59093;-79
2023/06/28 03:02:33;;;;;;;33.90;14.80;;;;;;;17.94;100.00;100223.77;106562;1283;59156;-81
2023/06/28 03:04:59;;;;;;;23.40;10.00;;;;;;;17.92;100.00;100221.75;107072;1283;58925;-80
2023/06/28 03:07:24;;;;;;;20.00;8.30;;;;;;;17.92;100.00;100221.36;107065;1283;75420;-80
2023/06/28 03:09:50;;;;;;;23.10;8.40;;;;;;;17.89;100.00;100224.35;107116;1283;59111;-80
2023/06/28 03:12:15;;;;;;;18.50;7.70;;;;;;;17.87;100.00;100220.81;107028;1283;59035;-81
2023/06/28 03:14:41;;;;;;;20.10;8.10;;;;;;;17.89;100.00;100223.04;107078;1283;59385;-80
2023/06/28 03:17:07;;;;;;;19.90;8.10;;;;;;;17.99;100.00;100223.41;107113;1283;59060;-80
2023/06/28 03:19:34;;;;;;;17.40;8.30;;;;;;;18.05;100.00;100217.88;107045;1283;74654;-81
2023/06/28 03:21:59;;;;;;;24.90;8.20;;;;;;;18.10;100.00;100220.02;107041;1283;73315;-80
2023/06/28 03:24:25;;;;;;;23.80;8.90;;;;;;;18.08;100.00;100217.84;106675;1283;59142;-80
2023/06/28 03:26:50;;;;;;;22.90;7.90;;;;;;;18.07;100.00;100218.79;107054;1283;59064;-80
2023/06/28 03:29:16;;;;;;;18.60;7.50;;;;;;;18.13;100.00;100219.21;107083;1283;59264;-81
2023/06/28 03:31:41;;;;;;;21.10;7.60;;;;;;;18.22;100.00;100220.92;107091;1283;59112;-80
2023/06/28 03:34:07;;;;;;;18.30;7.20;;;;;;;18.26;100.00;100220.12;107051;1283;59027;-80
2023/06/28 03:36:34;;;;;;;24.10;8.00;;;;;;;18.33;100.00;100218.80;107029;1283;59046;-80
2023/06/28 03:39:00;;;;;;;27.10;8.40;;;;;;;18.44;100.00;100220.06;106575;1283;59137;-80
2023/06/28 03:41:27;;;;;;;20.40;7.20;;;;;;;18.54;100.00;100222.39;107044;1282;59125;-78
2023/06/28 03:43:52;;;;;;;24.60;7.40;;;;;;;18.66;100.00;100220.23;107052;1283;59113;-80
2023/06/28 03:46:18;;;;;;;18.10;7.20;;;;;;;18.86;100.00;100218.98;107000;1283;58981;-79
2023/06/28 03:48:43;;;;;;;19.80;6.90;;;;;;;19.05;100.00;100213.29;107028;1283;59152;-80
2023/06/28 03:51:09;;;;;;;22.90;7.00;;;;;;;19.17;100.00;100210.02;107052;1283;59052;-80
2023/06/28 03:53:34;;;;;;;17.80;7.20;;;;;;;19.26;100.00;100212.91;107101;1283;59505;-80
2023/06/28 03:56:18;;;;;;;16.00;7.00;;;;;;;19.35;100.00;100212.10;106541;1283;59135;-81
2023/06/28 03:58:44;;;;;;;13.80;6.90;;;;;;;19.43;100.00;100213.06;107034;1283;60133;-80
2023/06/28 04:01:09;;;;;;;14.60;7.10;;;;;;;19.49;100.00;100218.98;107060;1282;59170;-81
2023/06/28 04:03:35;;;;;;;17.90;7.40;;;;;;;19.50;100.00;100219.90;106535;1283;59447;-81
2023/06/28 04:06:00;;;;;;;14.50;7.30;;;;;;;19.54;100.00;100216.17;107107;1283;59026;-81
2023/06/28 04:08:26;;;;;;;16.10;7.80;;;;;;;19.57;100.00;100216.17;107122;1283;59074;-81
2023/06/28 04:10:53;;;;;;;16.60;7.20;;;;;;;19.58;100.00;100213.66;106853;1283;73333;-81
2023/06/28 04:13:19;;;;;;;16.10;7.50;;;;;;;19.58;100.00;100217.94;107080;1283;74335;-80
2023/06/28 04:15:44;;;;;;;16.80;7.70;;;;;;;19.58;100.00;100215.46;106868;1283;59481;-81
2023/06/28 04:18:10;;;;;;;17.40;7.60;;;;;;;19.60;100.00;100218.88;107087;1283;58958;-81
2023/06/28 04:20:35;;;;;;;15.80;7.50;;;;;;;19.57;100.00;100218.92;107085;1283;59457;-81
2023/06/28 04:23:01;;;;;;;17.80;7.10;;;;;;;19.57;100.00;100214.47;107096;1283;59048;-81
2023/06/28 04:25:26;;;;;;;17.00;7.60;;;;;;;19.65;100.00;100216.30;107044;1283;72541;-80
2023/06/28 04:27:52;;;;;;;16.00;7.90;;;;;;;19.76;100.00;100218.16;107045;1283;59049;-81
2023/06/28 04:30:17;;;;;;;20.50;7.50;;;;;;;19.83;100.00;100217.15;107061;1283;59085;-81
2023/06/28 04:32:44;;;;;;;16.00;6.90;;;;;;;19.82;100.00;100219.41;106561;1283;59151;-81
2023/06/28 04:35:14;;;;;;;17.10;7.40;;;;;;;19.81;100.00;100215.44;107079;1283;59188;-81
2023/06/28 04:37:40;;;;;;;14.80;7.80;;;;;;;19.83;100.00;100211.23;106517;1283;59025;-80
2023/06/28 04:40:06;;;;;;;15.70;6.90;;;;;;;19.83;100.00;100203.26;106516;1283;59035;-81
2023/06/28 04:42:31;;;;;;;19.50;8.40;;;;;;;19.76;100.00;100201.20;107064;1283;58997;-81
2023/06/28 04:45:00;;;;;;;15.00;7.50;;;;;;;19.79;100.00;100197.50;107114;1283;59247;-81
2023/06/28 04:47:27;;;;;;;19.70;8.10;;;;;;;19.85;100.00;100190.22;107074;1282;74154;-81
2023/06/28 04:49:54;;;;;;;26.50;7.80;;;;;;;19.90;100.00;100186.36;106750;1283;71637;-81
2023/06/28 04:52:21;;;;;;;15.00;6.60;;;;;;;20.01;100.00;100193.55;107042;1283;60914;-81
2023/06/28 04:54:48;;;;;;;14.50;7.50;;;;;;;20.12;100.00;100191.41;107080;1283;60007;-81
2023/06/28 04:57:17;;;;;;;17.70;7.70;;;;;;;20.25;100.00;100198.75;107029;1283;75457;-81
2023/06/28 04:59:43;;;;;;;17.00;7.70;;;;;;;20.39;100.00;100198.25;106527;1283;73514;-81
2023/06/28 05:02:09;;;;;;;18.70;7.20;;;;;;;20.58;100.00;100193.38;107041;1283;59331;-81
2023/06/28 05:04:36;;;;;;;18.60;7.00;;;;;;;20.74;100.00;100191.77;107017;1283;59012;-81
2023/06/28 05:07:04;;;;;;;14.30;7.40;;;;;;;20.86;100.00;100189.09;107035;1283;59089;-80
2023/06/28 05:09:33;;;;;;;14.40;6.80;;;;;;;20.97;100.00;100192.42;107068;1283;74462;-81
2023/06/28 05:12:00;;;;;;;11.60;6.40;;;;;;;21.07;100.00;100190.55;106571;1283;74400;-82
2023/06/28 05:14:27;;;;;;;20.40;7.60;;;;;;;21.22;100.00;100192.05;106341;1283;72699;-91
2023/06/28 05:16:52;;;;;;;19.70;7.20;;;;;;;21.31;100.00;100194.39;107029;1283;62528;-85
2023/06/28 05:19:19;;;;;;;14.40;6.60;;;;;;;21.42;100.00;100195.73;107119;1283;59046;-84
2023/06/28 05:21:44;;;;;;;16.50;6.90;;;;;;;21.53;100.00;100194.48;106854;1283;59049;-85
2023/06/28 05:31:00;;;;;;;13.10;7.30;;;;;;;21.75;100.00;100189.79;103069;1289;599929;-85
2023/06/28 05:36:48;;;;;;;18.60;7.30;;;;;;;21.80;100.00;100188.44;103556;1291;60337;-85
2023/06/28 05:39:14;;;;;;;20.20;8.30;;;;;;;21.82;100.00;100190.15;103178;1293;60379;-86
2023/06/28 05:41:40;;;;;;;14.50;8.40;;;;;;;21.94;100.00;100194.98;103455;1290;60482;-85
2023/06/28 05:44:05;;;;;;;20.40;8.30;;;;;;;22.10;100.00;100192.02;103414;1291;346895;-86
2023/06/28 05:46:32;;;;;;;17.00;8.10;;;;;;;22.26;100.00;100192.52;103811;1283;60575;-85
2023/06/28 05:48:58;;;;;;;21.40;8.10;;;;;;;22.32;100.00;100193.84;103722;1283;60822;-85
2023/06/28 05:51:24;;;;;;;14.00;7.60;;;;;;;22.36;100.00;100200.38;103822;1289;74688;-85
2023/06/28 05:53:49;;;;;;;16.30;8.20;;;;;;;22.39;100.00;100201.50;103941;1284;60482;-86
2023/06/28 05:56:15;;;;;;;19.20;9.30;;;;;;;22.42;100.00;100199.23;103574;1290;60446;-86
2023/06/28 06:02:22;;;;;;;26.60;9.90;;;;;;;22.44;100.00;100200.09;103511;1285;599871;-87
2023/06/28 06:04:47;;;;;;;17.40;9.70;;;;;;;22.51;100.00;100203.62;103705;1289;60492;-87
2023/06/28 06:10:32;;;;;;;18.50;9.20;;;;;;;22.60;100.00;100192.57;103420;1287;600178;-85
2023/06/28 06:12:57;;;;;;;17.70;9.70;;;;;;;22.57;100.00;100185.59;103611;1291;60345;-85
2023/06/28 06:15:23;;;;;;;22.10;10.10;;;;;;;22.51;100.00;100179.52;103593;1286;60402;-85
2023/06/28 06:17:50;;;;;;;25.10;11.40;;;;;;;22.35;100.00;100170.08;103376;1287;60383;-86
2023/06/28 06:20:16;;;;;;;21.80;10.60;;;;;;;22.28;100.00;100169.48;103618;1290;60485;-86
2023/06/28 06:22:43;;;;;;;22.60;10.20;;;;;;;22.28;100.00;100180.95;103567;1286;60315;-84
2023/06/28 06:25:09;;;;;;;22.10;10.00;;;;;;;22.34;100.00;100188.82;103615;1283;334550;-85
2023/06/28 06:27:35;;;;;;;22.10;10.70;;;;;;;22.37;100.00;100195.62;103811;1283;60264;-87
2023/06/28 06:30:02;;;;;;;20.50;9.80;;;;;;;22.35;100.00;100203.58;103868;1289;60450;-84
2023/06/28 06:32:27;;;;;;;21.50;10.80;;;;;;;22.34;100.00;100207.63;103860;1283;60483;-85
2023/06/28 06:34:53;;;;;;;26.60;10.90;;;;;;;22.38;100.00;100203.11;103492;1292;60409;-85
2023/06/28 06:37:20;;;;;;;23.50;10.60;;;;;;;22.41;100.00;100201.78;103855;1284;60356;-86
2023/06/28 06:39:45;;;;;;;19.80;10.40;;;;;;;22.45;100.00;100201.89;103724;1283;60373;-86
2023/06/28 06:42:11;;;;;;;24.70;10.60;;;;;;;22.49;100.00;100205.05;103748;1283;60395;-85
2023/06/28 06:44:36;;;;;;;21.10;10.20;;;;;;;22.50;100.00;100210.75;103783;1283;60379;-86
2023/06/28 06:47:19;;;;;;;26.20;10.20;;;;;;;22.55;100.00;100212.77;102890;1291;600099;-85
2023/06/28 06:49:44;;;;;;;19.70;9.60;;;;;;;22.59;100.00;100205.18;103144;1293;60400;-86
2023/06/28 06:55:33;;;;;;;20.50;8.30;;;;;;;23.48;100.00;100196.33;103286;1291;71123;-86
2023/06/28 07:01:34;;;;;;;21.60;8.50;;;;;;;25.67;100.00;100195.34;102820;1296;600996;-86
2023/06/28 07:04:00;;;;;;;20.80;8.00;;;;;;;26.09;100.00;100200.36;102952;1298;60316;-86
2023/06/28 07:06:26;;;;;;;22.00;8.40;;;;;;;26.28;100.00;100202.58;103114;1296;60347;-86
2023/06/28 07:08:51;;;;;;;19.70;8.30;;;;;;;26.40;100.00;100205.56;103033;1296;60417;-88
2023/06/28 07:11:17;;;;;;;27.60;8.90;;;;;;;26.71;100.00;100202.23;102925;1293;60503;-88
2023/06/28 07:13:43;;;;;;;31.30;8.40;;;;;;;27.61;100.00;100198.36;103027;1293;63163;-88
2023/06/28 07:16:08;;;;;;;19.80;8.10;;;;;;;28.53;100.00;100195.99;102714;1297;461001;-89
2023/06/28 07:18:34;;;;;;;28.80;8.80;;;;;;;28.70;100.00;100196.59;103169;1290;60398;-88
2023/06/28 07:20:59;;;;;;;30.90;8.90;;;;;;;28.61;100.00;100202.92;103259;1290;60399;-88
2023/06/28 07:23:42;;;;;;;25.50;8.80;;;;;;;28.79;100.00;100209.69;103493;1283;600929;-89
2023/06/28 07:26:08;;;;;;;24.60;8.20;;;;;;;29.03;100.00;100206.18;103702;1288;60377;-89
2023/06/28 07:28:33;;;;;;;25.30;8.90;;;;;;;29.28;100.00;100212.30;103601;1286;60605;-89
2023/06/28 07:30:59;;;;;;;28.70;8.40;;;;;;;29.55;100.00;100219.91;103517;1292;60495;-89
2023/06/28 07:33:25;;;;;;;20.50;8.10;;;;;;;30.25;100.00;100220.95;103589;1289;60491;-88
2023/06/28 07:35:52;;;;;;;20.80;9.40;;;;;;;30.71;100.00;100220.20;103715;1288;60749;-91
2023/06/28 07:38:19;;;;;;;20.10;9.50;;;;;;;30.53;97.75;100215.13;103341;1283;422357;-89
2023/06/28 07:44:08;;;;;;;26.60;9.90;;;;;;;30.03;93.29;100204.98;103131;1293;600992;-89
2023/06/28 07:46:34;;;;;;;25.60;9.80;;;;;;;29.93;92.16;100199.30;103269;1293;60393;-86
2023/06/28 07:49:00;;;;;;;25.90;10.40;;;;;;;29.88;91.97;100200.19;103509;1288;60320;-90
2023/06/28 07:54:47;;;;;;;28.90;9.50;;;;;;;30.31;88.68;100203.07;103552;1288;74875;-88
2023/06/28 07:57:13;;;;;;;22.30;10.30;;;;;;;30.78;87.93;100209.10;103019;1288;340788;-91
2023/06/28 07:59:38;;;;;;;26.10;10.90;;;;;;;31.70;84.57;100212.13;103772;1285;60357;-89
2023/06/28 08:02:04;;;;;;;25.60;10.80;;;;;;;32.71;81.88;100213.17;103618;1286;60422;-88
2023/06/28 08:04:30;;;;;;;38.50;10.90;;;;;;;33.48;75.51;100212.77;103826;1285;60402;-86
2023/06/28 08:06:55;;;;;;;17.10;9.30;;;;;;;33.75;69.82;100206.54;103638;1285;74012;-86
2023/06/28 08:09:21;;;;;;;26.40;10.40;;;;;;;33.68;66.97;100215.15;103589;1285;60377;-85
2023/06/28 08:16:51;;;;;;;20.40;10.10;;;;;;;32.81;63.18;100226.91;103665;1285;601023;-89
2023/06/28 08:19:16;;;;;;;20.30;9.20;;;;;;;32.80;63.66;100225.24;103514;1286;60479;-88
2023/06/28 08:21:42;;;;;;;17.40;9.10;;;;;;;33.05;64.34;100222.82;103494;1285;60227;-88
2023/06/28 08:24:08;;;;;;;19.50;7.90;;;;;;;33.72;61.56;100225.52;103604;1291;60279;-87
2023/06/28 08:26:36;;;;;;;19.70;8.80;;;;;;;34.03;58.43;100228.55;103687;1286;60412;-85
2023/06/28 08:29:02;;;;;;;20.50;8.30;;;;;;;33.95;57.48;100230.69;103734;1285;61017;-83
2023/06/28 08:31:28;;;;;;;20.90;8.50;;;;;;;33.95;57.49;100232.93;103665;1283;329882;-89
2023/06/28 08:33:54;;;;;;;14.40;7.30;;;;;;;34.28;57.26;100236.68;103797;1282;60904;-87
2023/06/28 08:39:53;;;;;;;15.70;7.70;;;;;;;34.21;55.15;100240.83;103248;1290;600246;-87
2023/06/28 08:42:19;;;;;;;18.10;7.90;;;;;;;33.46;54.71;100249.85;103325;1286;60325;-86
2023/06/28 08:44:50;;;;;;;14.80;7.50;;;;;;;32.64;55.01;100257.27;103099;1292;60847;-84
2023/06/28 08:47:16;;;;;;;17.60;7.00;;;;;;;31.97;56.16;100259.80;103494;1294;73784;-87
2023/06/28 08:53:04;;;;;;;19.40;7.20;;;;;;;31.48;58.77;100264.41;103277;1288;600343;-84
2023/06/28 08:55:30;;;;;;;14.20;6.90;;;;;;;31.11;59.49;100265.69;103521;1294;61173;-86
2023/06/28 08:57:57;;;;;;;12.60;7.00;;;;;;;30.85;61.14;100272.29;103666;1288;60486;-84
2023/06/28 09:00:23;;;;;;;12.60;6.60;;;;;;;30.46;61.22;100277.68;103634;1289;60383;-83
2023/06/28 09:02:49;;;;;;;11.50;6.30;;;;;;;29.93;63.14;100285.68;103607;1291;60352;-84
2023/06/28 09:05:17;;;;;;;12.80;7.10;;;;;;;29.67;65.16;100292.20;103157;1294;60429;-84
2023/06/28 09:07:44;;;;;;;15.90;7.50;;;;;;;29.24;66.86;100294.00;102966;1295;378856;-84
2023/06/28 09:10:10;;;;;;;15.10;7.60;;;;;;;28.92;70.22;100297.95;103238;1291;61726;-84
2023/06/28 09:12:38;;;;;;;13.20;7.00;;;;;;;28.69;71.82;100300.00;103260;1291;60334;-86
2023/06/28 09:15:04;;;;;;;12.20;6.40;;;;;;;28.38;75.39;100299.54;103358;1286;74537;-83
2023/06/28 09:17:30;;;;;;;14.50;7.10;;;;;;;28.24;78.46;100313.14;103200;1288;60376;-86
2023/06/28 09:20:20;;;;;;;11.30;7.20;;;;;;;28.08;81.32;100315.19;106634;1289;58644;-87
2023/06/28 09:22:56;;;;;;;11.60;6.70;;;;;;;27.94;85.35;100306.14;106616;1286;59957;-87
2023/06/28 09:25:23;;;;;;;15.90;6.90;;;;;;;27.78;92.87;100295.57;106635;1287;72958;-87
2023/06/28 09:27:48;;;;;;;14.80;7.10;;;;;;;27.57;95.66;100294.60;106489;1287;73365;-86
2023/06/28 09:30:18;;;;;;;16.50;7.40;;;;;;;27.32;97.18;100294.77;106623;1286;58171;-84
2023/06/28 09:32:50;;;;;;;12.40;6.70;;;;;;;27.25;98.71;100293.98;106641;1288;60888;-85
2023/06/28 09:35:19;;;;;;;12.70;6.30;;;;;;;27.30;99.99;100295.86;106675;1286;61564;-86
2023/06/28 09:38:13;;;;;;;14.60;7.10;;;;;;;27.41;99.97;100295.80;106464;1288;73659;-86
2023/06/28 09:40:38;;;;;;;12.70;7.20;;;;;;;27.51;98.61;100300.70;106671;1286;73368;-87
2023/06/28 09:43:04;;;;;;;12.40;7.00;;;;;;;27.55;96.25;100299.34;106859;1282;58185;-86
2023/06/28 09:45:37;;;;;;;13.30;7.00;;;;;;;27.48;97.35;100292.46;106893;1282;58178;-87
2023/06/28 09:48:04;;;;;;;11.40;7.00;;;;;;;27.33;97.37;100293.04;106579;1282;60644;-86
2023/06/28 09:50:46;;;;;;;12.00;6.00;;;;;;;27.08;98.83;100290.56;106924;1282;73989;-86
2023/06/28 09:53:17;;;;;;;10.10;6.30;;;;;;;26.93;99.93;100285.34;107111;1282;74571;-86
2023/06/28 09:55:44;;;;;;;14.10;6.90;;;;;;;26.91;100.00;100286.82;106593;1287;71906;-91
2023/06/28 09:58:14;;;;;;;13.00;7.20;;;;;;;26.97;100.00;100280.73;106798;1285;59330;-87
2023/06/28 10:00:46;;;;;;;9.70;6.40;;;;;;;27.01;99.56;100278.46;107140;1282;61173;-86
2023/06/28 10:03:13;;;;;;;11.60;6.00;;;;;;;27.02;99.95;100275.95;107109;1282;73610;-91
2023/06/28 10:05:41;;;;;;;15.40;6.40;;;;;;;27.28;100.00;100273.63;107106;1282;74228;-88
2023/06/28 10:08:14;;;;;;;10.50;6.00;;;;;;;27.81;100.00;100270.35;106784;1282;73300;-87
2023/06/28 10:10:41;;;;;;;13.40;6.50;;;;;;;28.48;97.81;100262.52;107091;1282;61126;-88
2023/06/28 10:13:11;;;;;;;13.60;6.40;;;;;;;28.90;91.26;100259.80;106425;1288;60902;-89
2023/06/28 10:15:47;;;;;;;11.50;6.50;;;;;;;29.10;88.72;100264.55;106490;1287;71839;-90
2023/06/28 10:18:15;;;;;;;10.80;6.20;;;;;;;29.33;87.33;100269.49;106463;1287;73334;-88
2023/06/28 10:20:41;;;;;;;9.20;5.90;;;;;;;29.49;84.56;100271.71;106485;1287;72294;-88
2023/06/28 10:23:10;;;;;;;10.70;5.20;;;;;;;29.78;82.98;100274.04;106464;1287;61652;-88
2023/06/28 10:25:36;;;;;;;10.90;5.10;;;;;;;29.95;79.96;100284.09;106274;1288;60377;-88
2023/06/28 10:28:02;;;;;;;8.80;5.10;;;;;;;29.94;78.35;100290.91;106228;1288;58314;-89
2023/06/28 10:30:28;;;;;;;8.80;4.70;;;;;;;29.87;76.47;100293.14;106487;1287;58278;-88
2023/06/28 10:32:56;;;;;;;7.30;4.80;;;;;;;29.76;75.51;100292.38;106489;1287;58172;-91
2023/06/28 10:35:22;;;;;;;9.10;4.60;;;;;;;29.86;73.60;100292.52;106518;1287;58259;-87
2023/06/28 10:37:49;;;;;;;8.50;4.90;;;;;;;30.05;74.61;100291.14;106489;1287;61078;-91
2023/06/28 10:40:14;;;;;;;7.30;4.50;;;;;;;30.34;73.86;100290.70;106524;1287;58219;-91
2023/06/28 10:42:41;;;;;;;7.10;4.50;;;;;;;30.54;72.56;100288.08;106468;1288;58203;-88
2023/06/28 10:45:10;;;;;;;11.00;4.50;;;;;;;30.50;69.88;100288.73;106747;1282;58637;-87
2023/06/28 10:47:37;;;;;;;8.60;4.40;;;;;;;30.20;68.74;100294.92;107063;1282;60876;-90
2023/06/28 10:50:14;;;;;;;12.50;4.90;;;;;;;29.95;70.57;100292.34;107043;1282;61428;-88
2023/06/28 10:52:51;;;;;;;7.10;3.90;;;;;;;29.87;71.72;100294.73;107081;1282;73845;-87
2023/06/28 10:55:21;;;;;;;7.00;4.10;;;;;;;29.97;70.96;100292.73;107078;1282;74330;-87
2023/06/28 10:58:10;;;;;;;8.60;4.30;;;;;;;30.06;71.96;100290.89;106863;1282;73593;-85
2023/06/28 11:00:44;;;;;;;9.20;3.40;;;;;;;30.24;70.81;100289.61;107083;1282;60185;-89
2023/06/28 11:03:09;;;;;;;6.00;3.70;;;;;;;30.17;67.80;100300.16;107099;1282;60214;-89
2023/06/28 11:05:38;;;;;;;5.60;3.90;;;;;;;30.21;69.55;100305.34;106636;1282;58140;-89
2023/06/28 11:08:10;;;;;;;8.40;4.10;;;;;;;30.30;69.16;100309.77;107078;1282;73451;-86
2023/06/28 11:10:41;;;;;;;11.00;4.10;;;;;;;30.33;66.32;100319.93;106875;1282;72632;-86
2023/06/28 11:13:17;;;;;;;6.80;4.00;;;;;;;30.11;67.74;100322.49;107047;1282;60119;-87
2023/06/28 11:15:46;;;;;;;6.60;3.10;;;;;;;30.29;68.44;100322.64;106933;1282;59905;-88
2023/06/28 11:18:21;;;;;;;4.80;3.50;;;;;;;30.30;68.40;100317.31;107067;1282;73929;-87
2023/06/28 11:21:01;;;;;;;4.70;3.10;;;;;;;30.31;68.66;100310.08;107141;1282;74139;-90
2023/06/28 11:23:39;;;;;;;7.20;3.80;;;;;;;30.47;68.82;100313.77;107033;1282;73743;-88
2023/06/28 11:26:07;;;;;;;4.80;3.40;;;;;;;30.56;67.56;100321.05;107092;1282;61205;-89
2023/06/28 11:28:35;;;;;;;5.70;3.00;;;;;;;30.48;66.77;100321.72;107100;1282;60038;-86
2023/06/28 11:31:42;;;;;;;5.20;3.10;;;;;;;30.38;66.83;100329.21;107081;1282;74292;-86
2023/06/28 11:34:09;;;;;;;6.80;3.30;;;;;;;30.26;65.19;100332.25;106443;1288;74813;-85
2023/06/28 11:36:35;;;;;;;6.90;3.30;;;;;;;30.04;64.32;100337.83;106431;1288;73775;-87
2023/06/28 11:39:02;;;;;;;5.90;3.40;;;;;;;29.73;64.81;100340.30;106418;1288;58260;-85
2023/06/28 11:41:27;;;;;;;6.40;3.60;;;;;;;29.55;65.19;100342.33;106425;1288;58119;-89
2023/06/28 11:44:03;;;;;;;4.90;3.10;;;;;;;29.49;66.21;100344.63;106255;1288;58294;-88
2023/06/28 11:46:31;;;;;;;4.20;2.90;;;;;;;29.46;67.37;100351.29;106223;1292;73427;-87
2023/06/28 11:49:00;;;;;;;5.20;2.50;;;;;;;29.41;64.86;100354.47;106293;1289;72588;-88